Hovedside
METAR-TAF:

METAR-TAF

Lufthavner :

Lakselv, Norge

Lakselv lufthavn

breddegrad: 70-04N, lengdegrad: 024-59E, høyde over havet: 0 m

Gjeldene værobservasjon

Denne rapporten ble laget for 19 minutter siden, klokken 04:20 UTC
Flau vind
Temperatur -6°C
Luftfuktighet 53%
Trykk 1012 hPa
Sikt 10 km eller mer
ingen skyer under 1500 m og ingen bygeskyer

METAR: ENNA 250420Z 00000KT CAVOK M06/M14 Q1012 RMK WIND 1800FT VRB01KT

Tid: 06:39 (04:39 UTC)

Varsel

Varsel gyldig fra 25. klokken 00 UTC til 25. klokken 24 UTC
Vind 8 kt fra Sør
Sikt 10 km eller mer
Få skyer i en høyde av 4000 ft

TAF: ENNA 2500/2524 18008KT 9999 FEW040

Værobservasjoner og værvarsel for over 4000 flyplasser (METAR- og TAF-rapporter).

Tilgjengelige stasjoner er representert av de røde og gule prikkene på kartet.

Hold musepekeren over prikken for å se navnet på stasjonen.

Klikk så for å se værobservasjoner og -varsler.

For å forandre kartet kan du klikke på den grønne knappen med svart kryss for å zoome inn, på den grønne knappen med strek for å zoome ut, eller på de grønne pilene for å se tilstøtende kart.


METAR-TAF: